Time;durP1;ratioP1;P1;durP2;ratioP2;P2;SDS_P1;SDS_P2;PMS_P1;PMS_P2;Temp;Humidity;BMP_temperature;BMP_pressure;BME280_temperature;BME280_humidity;BME280_pressure;Samples;Min_cycle;Max_cycle;Signal;HPM_P1;HPM_P2
2024/03/18 00:02:25;;;;;;;63.63;48.72;;;12.70;99.90;;;;;;5042309;28;20025;-80
2024/03/18 00:04:52;;;;;;;57.65;42.60;;;12.70;99.90;;;;;;5043839;28;20028;-80
2024/03/18 00:07:19;;;;;;;60.92;44.33;;;12.70;99.90;;;;;;5034537;28;20142;-80
2024/03/18 00:09:46;;;;;;;59.08;45.92;;;12.70;99.90;;;;;;5043418;28;20029;-80
2024/03/18 00:12:11;;;;;;;61.65;43.88;;;12.70;99.90;;;;;;5044613;28;20099;-80
2024/03/18 00:14:38;;;;;;;66.47;47.80;;;12.60;99.90;;;;;;5024895;28;20683;-80
2024/03/18 00:17:07;;;;;;;63.03;48.75;;;12.60;99.90;;;;;;5045593;28;20087;-80
2024/03/18 00:19:33;;;;;;;61.58;44.65;;;12.60;99.90;;;;;;5045426;28;20021;-80
2024/03/18 00:21:59;;;;;;;58.55;44.55;;;12.70;99.90;;;;;;5032757;28;20025;-80
2024/03/18 00:24:25;;;;;;;62.08;46.80;;;12.60;99.90;;;;;;5035729;28;20017;-80
2024/03/18 00:26:50;;;;;;;60.15;45.60;;;12.60;99.90;;;;;;5026897;28;20060;-80
2024/03/18 00:29:16;;;;;;;63.50;48.25;;;12.60;99.90;;;;;;5045363;28;20032;-80
2024/03/18 00:31:42;;;;;;;64.93;49.42;;;12.60;99.90;;;;;;5032606;28;20052;-80
2024/03/18 00:34:08;;;;;;;64.22;48.88;;;12.60;99.90;;;;;;5026584;28;20017;-80
2024/03/18 00:36:37;;;;;;;59.28;48.03;;;12.60;99.90;;;;;;5033117;28;20033;-80
2024/03/18 00:39:02;;;;;;;58.90;47.50;;;12.60;99.90;;;;;;5043976;28;20029;-80
2024/03/18 00:41:47;;;;;;;59.75;47.55;;;12.60;99.90;;;;;;5042817;28;20107;-80
2024/03/18 00:44:19;;;;;;;67.13;51.08;;;12.60;99.90;;;;;;5023905;28;20026;-80
2024/03/18 00:46:46;;;;;;;;;;;12.60;99.90;;;;;;5045612;28;20025;-80
2024/03/18 00:49:13;;;;;;;57.22;45.78;;;12.60;99.90;;;;;;5061658;28;20370;-80
2024/03/18 00:51:40;;;;;;;60.75;46.05;;;12.60;99.90;;;;;;5045509;28;20059;-80
2024/03/18 00:54:07;;;;;;;60.20;48.92;;;12.60;99.90;;;;;;5031851;28;20026;-80
2024/03/18 00:56:33;;;;;;;64.15;47.97;;;12.60;99.90;;;;;;5044645;28;20508;-80
2024/03/18 00:59:08;;;;;;;66.22;51.83;;;12.70;99.90;;;;;;5027125;28;20400;-80
2024/03/18 01:01:35;;;;;;;68.30;52.47;;;12.60;99.90;;;;;;5041921;28;20385;-80
2024/03/18 01:04:01;;;;;;;63.60;48.85;;;12.60;99.90;;;;;;5044269;28;20473;-80
2024/03/18 01:06:27;;;;;;;61.00;47.97;;;12.60;99.90;;;;;;5045077;28;20051;-80
2024/03/18 01:08:54;;;;;;;64.63;51.03;;;12.70;99.90;;;;;;5019757;28;20030;-80
2024/03/18 01:11:20;;;;;;;63.20;47.15;;;12.70;99.90;;;;;;5044729;28;20047;-80
2024/03/18 01:13:47;;;;;;;59.50;46.83;;;12.70;99.90;;;;;;5031427;28;20059;-80
2024/03/18 01:16:14;;;;;;;65.95;47.42;;;12.70;99.90;;;;;;5043966;28;20473;-80
2024/03/18 01:18:40;;;;;;;61.08;48.05;;;12.70;99.90;;;;;;5031293;28;20315;-80
2024/03/18 01:21:06;;;;;;;60.63;44.70;;;12.70;99.90;;;;;;5043591;28;20032;-80
2024/03/18 01:23:32;;;;;;;65.20;49.40;;;12.70;99.90;;;;;;5040335;28;20052;-80
2024/03/18 01:25:58;;;;;;;63.33;49.60;;;12.70;99.90;;;;;;5024211;28;20075;-80
2024/03/18 01:28:23;;;;;;;65.68;47.72;;;12.70;99.90;;;;;;5024782;28;20014;-80
2024/03/18 01:30:49;;;;;;;61.13;48.53;;;12.70;99.90;;;;;;5033017;28;20496;-80
2024/03/18 01:33:15;;;;;;;65.93;51.97;;;12.70;99.90;;;;;;5041756;28;20159;-80
2024/03/18 01:35:40;;;;;;;59.58;46.95;;;12.70;99.90;;;;;;5043272;28;20076;-80
2024/03/18 01:38:06;;;;;;;59.10;45.00;;;12.70;99.90;;;;;;5040931;28;20227;-80
2024/03/18 01:40:33;;;;;;;59.17;45.10;;;12.70;99.90;;;;;;5043947;28;20029;-80
2024/03/18 01:42:59;;;;;;;60.85;47.88;;;12.70;99.90;;;;;;5040458;28;20067;-80
2024/03/18 01:45:25;;;;;;;61.08;48.25;;;12.60;99.90;;;;;;5022828;28;20063;-80
2024/03/18 01:47:55;;;;;;;68.03;50.63;;;12.60;99.90;;;;;;5033704;28;20028;-80
2024/03/18 01:50:22;;;;;;;63.63;46.30;;;12.60;99.90;;;;;;5033676;28;20040;-80
2024/03/18 01:52:48;;;;;;;66.05;50.33;;;12.70;99.90;;;;;;5022486;28;20025;-79
2024/03/18 01:55:14;;;;;;;64.18;49.88;;;12.70;99.90;;;;;;5024639;28;20089;-79
2024/03/18 01:57:41;;;;;;;59.72;47.50;;;12.70;99.90;;;;;;5040774;28;20065;-79
2024/03/18 02:00:15;;;;;;;62.38;49.03;;;12.60;99.90;;;;;;5033068;28;20025;-78
2024/03/18 02:02:42;;;;;;;59.88;49.28;;;12.60;99.90;;;;;;5040104;28;20389;-79
2024/03/18 02:05:09;;;;;;;65.70;50.00;;;12.60;99.90;;;;;;5047233;28;20029;-78
2024/03/18 02:07:35;;;;;;;61.83;47.60;;;12.60;99.90;;;;;;5040593;28;20022;-79
2024/03/18 02:10:05;;;;;;;60.40;47.28;;;12.50;99.90;;;;;;5024795;28;20029;-79
2024/03/18 02:12:32;;;;;;;64.65;51.42;;;12.50;99.90;;;;;;5040471;28;20031;-79
2024/03/18 02:14:59;;;;;;;61.70;48.45;;;12.50;99.90;;;;;;5024898;28;20520;-78
2024/03/18 02:17:25;;;;;;;62.13;50.03;;;12.50;99.90;;;;;;5031050;28;20028;-79
2024/03/18 02:19:51;;;;;;;68.20;52.47;;;12.50;99.90;;;;;;5043380;28;20018;-79
2024/03/18 02:22:17;;;;;;;65.88;52.60;;;12.50;99.90;;;;;;5031628;28;20370;-79
2024/03/18 02:24:42;;;;;;;60.13;45.05;;;12.50;99.90;;;;;;5041322;28;20021;-79
2024/03/18 02:27:10;;;;;;;64.20;50.83;;;12.50;99.90;;;;;;5041971;28;20028;-79
2024/03/18 02:29:36;;;;;;;62.33;49.47;;;12.50;99.90;;;;;;5032100;28;20075;-79
2024/03/18 02:32:02;;;;;;;63.88;49.22;;;12.60;99.90;;;;;;5040437;28;20037;-79
2024/03/18 02:34:28;;;;;;;63.85;50.30;;;12.50;99.90;;;;;;5042556;28;20078;-79
2024/03/18 02:36:54;;;;;;;65.57;51.50;;;12.50;99.90;;;;;;5039908;28;20477;-79
2024/03/18 02:39:24;;;;;;;58.03;44.42;;;12.60;99.90;;;;;;5025239;28;20071;-79
2024/03/18 02:41:55;;;;;;;60.45;46.85;;;12.60;99.90;;;;;;5021986;28;20030;-79
2024/03/18 02:44:20;;;;;;;69.07;48.88;;;12.50;99.90;;;;;;5032693;28;20025;-79
2024/03/18 02:46:47;;;;;;;71.90;51.95;;;12.60;99.90;;;;;;5039740;28;20519;-78
2024/03/18 02:49:14;;;;;;;63.70;51.28;;;12.50;99.90;;;;;;5033039;28;20064;-79
2024/03/18 02:51:40;;;;;;;61.53;45.67;;;12.50;99.90;;;;;;5033313;28;20028;-78
2024/03/18 02:54:06;;;;;;;66.07;50.75;;;12.50;99.90;;;;;;5039503;28;20100;-79
2024/03/18 02:56:32;;;;;;;66.95;49.75;;;12.50;99.90;;;;;;5042486;28;20040;-78
2024/03/18 02:58:58;;;;;;;63.50;49.78;;;12.50;99.90;;;;;;5039928;28;20022;-79
2024/03/18 03:01:24;;;;;;;66.25;51.50;;;12.50;99.90;;;;;;5045475;28;20071;-78
2024/03/18 03:03:54;;;;;;;69.40;50.72;;;12.40;99.90;;;;;;5040796;28;20473;-78
2024/03/18 03:06:20;;;;;;;70.80;53.85;;;12.40;99.90;;;;;;5046111;28;20021;-78
2024/03/18 03:08:46;;;;;;;67.75;52.28;;;12.40;99.90;;;;;;5036163;28;20029;-78
2024/03/18 03:11:13;;;;;;;67.78;48.28;;;12.40;99.90;;;;;;5044869;28;20031;-78
2024/03/18 03:13:39;;;;;;;63.05;46.72;;;12.40;99.90;;;;;;5035548;28;20040;-78
2024/03/18 03:16:09;;;;;;;66.60;53.65;;;12.40;99.90;;;;;;5035455;28;20060;-78
2024/03/18 03:18:35;;;;;;;67.03;49.15;;;12.40;99.90;;;;;;5022974;28;20040;-78
2024/03/18 03:21:01;;;;;;;71.13;53.75;;;12.40;99.90;;;;;;5035559;28;20112;-79
2024/03/18 03:23:27;;;;;;;69.35;53.88;;;12.40;99.90;;;;;;5044179;28;20420;-78
2024/03/18 03:25:52;;;;;;;67.75;53.53;;;12.40;99.90;;;;;;5045807;28;20035;-79
2024/03/18 03:28:18;;;;;;;65.85;52.85;;;12.40;99.90;;;;;;5022051;28;20112;-78
2024/03/18 03:30:44;;;;;;;66.75;50.75;;;12.40;99.90;;;;;;5025130;28;20025;-79
2024/03/18 03:33:10;;;;;;;70.25;55.58;;;12.30;99.90;;;;;;5036737;28;20017;-79
2024/03/18 03:35:36;;;;;;;68.72;52.17;;;12.30;99.90;;;;;;5042875;28;20161;-79
2024/03/18 03:38:02;;;;;;;66.05;51.83;;;12.30;99.90;;;;;;5045763;28;20029;-79
2024/03/18 03:40:28;;;;;;;67.70;53.08;;;12.30;99.90;;;;;;5043658;28;20029;-79
2024/03/18 03:42:54;;;;;;;70.55;55.85;;;12.30;99.90;;;;;;5027210;28;20025;-78
2024/03/18 03:45:24;;;;;;;68.07;53.40;;;12.30;99.90;;;;;;5043224;28;20458;-79
2024/03/18 03:47:51;;;;;;;69.63;54.88;;;12.40;99.90;;;;;;5049019;28;20078;-79
2024/03/18 03:50:18;;;;;;;70.13;53.00;;;12.40;99.90;;;;;;5033943;28;20036;-79
2024/03/18 03:52:43;;;;;;;71.38;52.90;;;12.40;99.90;;;;;;5044634;28;20505;-79
2024/03/18 03:55:09;;;;;;;62.30;51.22;;;12.40;99.90;;;;;;5034604;28;20059;-79
2024/03/18 03:57:35;;;;;;;62.22;52.25;;;12.40;99.90;;;;;;5045658;28;20478;-78
2024/03/18 04:00:02;;;;;;;69.28;54.90;;;12.40;99.90;;;;;;5045890;28;20025;-78
2024/03/18 04:02:28;;;;;;;66.68;48.15;;;12.30;99.90;;;;;;5048119;28;20386;-79
2024/03/18 04:04:55;;;;;;;67.38;52.03;;;12.40;99.90;;;;;;5046781;28;20036;-79
2024/03/18 04:07:23;;;;;;;72.68;52.92;;;12.40;99.90;;;;;;5045388;28;20025;-78
2024/03/18 04:09:50;;;;;;;65.43;48.72;;;12.40;99.90;;;;;;5042152;28;20022;-79
2024/03/18 04:12:17;;;;;;;67.15;52.38;;;12.40;99.90;;;;;;5045111;28;20389;-78
2024/03/18 04:14:43;;;;;;;65.25;50.67;;;12.50;99.90;;;;;;5035687;28;20035;-78
2024/03/18 04:17:10;;;;;;;62.92;46.28;;;12.50;99.90;;;;;;5040857;28;20452;-78
2024/03/18 04:19:40;;;;;;;62.22;47.67;;;12.50;99.90;;;;;;5023853;28;20481;-78
2024/03/18 04:22:06;;;;;;;61.83;49.45;;;12.50;99.90;;;;;;5041541;28;20017;-79
2024/03/18 04:24:32;;;;;;;69.43;54.92;;;12.50;99.90;;;;;;5044993;28;20106;-79
2024/03/18 04:26:57;;;;;;;68.00;54.63;;;12.50;99.90;;;;;;5041839;28;20096;-78
2024/03/18 04:29:23;;;;;;;62.38;48.35;;;12.40;99.90;;;;;;5044207;28;20642;-78
2024/03/18 04:31:49;;;;;;;65.47;50.05;;;12.40;99.90;;;;;;5044979;28;20104;-78
2024/03/18 04:34:15;;;;;;;64.65;51.38;;;12.40;99.90;;;;;;5042701;28;20120;-79
2024/03/18 04:36:44;;;;;;;59.90;46.60;;;12.40;99.90;;;;;;5043258;28;20087;-78
2024/03/18 04:39:10;;;;;;;64.85;52.22;;;12.30;99.90;;;;;;5025335;28;20083;-78
2024/03/18 04:41:36;;;;;;;67.93;52.05;;;12.30;99.90;;;;;;5034014;28;20488;-79
2024/03/18 04:44:02;;;;;;;71.32;53.60;;;12.30;99.90;;;;;;5045141;28;20064;-79
2024/03/18 04:46:28;;;;;;;64.72;51.40;;;12.20;99.90;;;;;;5035426;28;20500;-78
2024/03/18 04:48:53;;;;;;;68.57;55.58;;;12.20;99.90;;;;;;5044129;28;20041;-79
2024/03/18 04:51:19;;;;;;;65.97;50.42;;;12.10;99.90;;;;;;5023987;28;20021;-78
2024/03/18 04:53:45;;;;;;;69.85;53.22;;;12.10;99.90;;;;;;5044813;28;20033;-78
2024/03/18 04:56:11;;;;;;;71.75;58.25;;;12.10;99.90;;;;;;5041186;28;20037;-79
2024/03/18 04:58:36;;;;;;;72.57;57.92;;;12.10;99.90;;;;;;5045315;28;20477;-78
2024/03/18 05:01:03;;;;;;;76.93;58.75;;;12.10;99.90;;;;;;5041286;28;20048;-79
2024/03/18 05:03:29;;;;;;;73.03;56.63;;;12.10;99.90;;;;;;5043988;28;20067;-78
2024/03/18 05:05:55;;;;;;;80.90;62.78;;;12.10;99.90;;;;;;5044385;28;20025;-78
2024/03/18 05:08:21;;;;;;;73.38;57.22;;;12.20;99.90;;;;;;5042099;28;20028;-79
2024/03/18 05:10:47;;;;;;;71.88;55.47;;;12.20;99.90;;;;;;5025739;28;20025;-79
2024/03/18 05:13:13;;;;;;;77.25;57.78;;;12.10;99.90;;;;;;5042516;28;20520;-78
2024/03/18 05:15:38;;;;;;;68.50;54.70;;;12.10;99.90;;;;;;5044571;28;20029;-78
2024/03/18 05:18:04;;;;;;;73.22;56.55;;;12.10;99.90;;;;;;5026392;28;20025;-79
2024/03/18 05:20:30;;;;;;;77.43;57.45;;;12.10;99.90;;;;;;5027015;28;20032;-78
2024/03/18 05:22:56;;;;;;;75.63;58.38;;;12.10;99.90;;;;;;5019840;28;20017;-78
2024/03/18 05:25:22;;;;;;;72.90;57.40;;;12.10;99.90;;;;;;5040804;28;20040;-78
2024/03/18 05:27:48;;;;;;;70.65;57.08;;;12.10;99.90;;;;;;5040722;28;20021;-79
2024/03/18 05:30:14;;;;;;;73.40;54.80;;;12.10;99.90;;;;;;5040493;28;20033;-79
2024/03/18 05:32:40;;;;;;;76.88;57.25;;;12.10;99.90;;;;;;5044821;28;20029;-78
2024/03/18 05:35:06;;;;;;;73.00;58.55;;;12.00;99.90;;;;;;5043320;28;20029;-79
2024/03/18 05:37:32;;;;;;;69.60;54.15;;;12.10;99.90;;;;;;5041541;28;20025;-78
2024/03/18 05:39:58;;;;;;;70.50;50.03;;;12.00;99.90;;;;;;5042406;28;20025;-79
2024/03/18 05:42:23;;;;;;;70.82;55.47;;;12.00;99.90;;;;;;5042262;28;20654;-79
2024/03/18 05:44:49;;;;;;;64.97;50.03;;;12.00;99.90;;;;;;5042064;28;20543;-78
2024/03/18 05:47:15;;;;;;;68.15;53.58;;;12.00;99.90;;;;;;5043001;28;20067;-79
2024/03/18 05:49:41;;;;;;;74.63;58.13;;;12.00;99.90;;;;;;5040802;28;20063;-79
2024/03/18 05:52:07;;;;;;;71.93;52.80;;;12.00;99.90;;;;;;5043253;28;20021;-79
2024/03/18 05:54:33;;;;;;;76.20;55.38;;;12.10;99.90;;;;;;5040573;28;20393;-79
2024/03/18 05:56:59;;;;;;;70.68;55.30;;;12.10;99.90;;;;;;5018898;28;20513;-79
2024/03/18 05:59:25;;;;;;;73.53;56.63;;;12.10;99.90;;;;;;5022274;28;20022;-79
2024/03/18 06:01:51;;;;;;;65.00;51.28;;;12.10;99.90;;;;;;5025631;28;20021;-78
2024/03/18 06:04:17;;;;;;;70.15;51.45;;;12.20;99.90;;;;;;5045214;28;20017;-78
2024/03/18 06:06:43;;;;;;;73.55;53.30;;;12.20;99.90;;;;;;5033796;28;20871;-79
2024/03/18 06:09:09;;;;;;;67.72;53.28;;;12.20;99.90;;;;;;5043621;28;20112;-79
2024/03/18 06:11:36;;;;;;;64.38;49.15;;;12.20;99.90;;;;;;5032549;28;20033;-79
2024/03/18 06:14:02;;;;;;;73.28;57.13;;;12.20;99.90;;;;;;5041757;28;20021;-78
2024/03/18 06:16:28;;;;;;;73.05;53.80;;;12.20;99.90;;;;;;5023543;28;20030;-78
2024/03/18 06:18:54;;;;;;;72.50;55.17;;;12.20;99.90;;;;;;5032495;28;20555;-79
2024/03/18 06:21:24;;;;;;;74.07;53.58;;;12.20;99.90;;;;;;5043192;28;20028;-79
2024/03/18 06:23:51;;;;;;;65.05;47.42;;;12.30;99.90;;;;;;5042199;28;20067;-79
2024/03/18 06:26:20;;;;;;;67.57;51.88;;;12.30;99.90;;;;;;5031398;28;20025;-79
2024/03/18 06:28:46;;;;;;;72.55;52.33;;;12.30;99.90;;;;;;5031369;28;20108;-79
2024/03/18 06:31:12;;;;;;;73.00;53.92;;;12.30;99.90;;;;;;5024807;28;20111;-79
2024/03/18 06:33:38;;;;;;;67.45;50.38;;;12.40;99.90;;;;;;5040215;28;20022;-78
2024/03/18 06:36:11;;;;;;;66.32;51.25;;;12.40;99.90;;;;;;5033111;28;20408;-78
2024/03/18 06:38:37;;;;;;;73.00;55.65;;;12.40;99.90;;;;;;5040758;28;20024;-78
2024/03/18 06:41:04;;;;;;;66.80;51.97;;;12.40;99.90;;;;;;5042488;28;20031;-78
2024/03/18 06:43:30;;;;;;;70.00;51.42;;;12.40;99.90;;;;;;5019057;28;20105;-78
2024/03/18 06:45:56;;;;;;;73.78;53.85;;;12.50;99.90;;;;;;5039881;28;20079;-78
2024/03/18 06:48:22;;;;;;;70.50;51.75;;;12.50;99.90;;;;;;5043269;28;20108;-78
2024/03/18 06:50:47;;;;;;;65.75;51.45;;;12.50;99.90;;;;;;5043148;28;20036;-78
2024/03/18 06:53:13;;;;;;;65.05;53.58;;;12.50;99.90;;;;;;5033408;28;20116;-78
2024/03/18 06:55:42;;;;;;;69.47;52.65;;;12.50;99.90;;;;;;5030791;28;20030;-78
2024/03/18 06:58:10;;;;;;;61.63;48.40;;;12.50;99.90;;;;;;5042133;28;20021;-78
2024/03/18 07:00:36;;;;;;;71.85;55.00;;;12.60;99.90;;;;;;5040092;28;20025;-78
2024/03/18 07:03:03;;;;;;;71.10;53.00;;;12.60;99.90;;;;;;5042083;28;20026;-78
2024/03/18 07:05:28;;;;;;;72.03;54.45;;;12.70;99.90;;;;;;5041412;28;20481;-78
2024/03/18 07:07:54;;;;;;;72.75;48.40;;;12.70;99.90;;;;;;5032488;28;20037;-78
2024/03/18 07:10:20;;;;;;;67.72;49.85;;;12.80;99.90;;;;;;5042082;28;20497;-78
2024/03/18 07:12:47;;;;;;;69.80;50.90;;;12.80;99.90;;;;;;5041245;28;20021;-78
2024/03/18 07:15:15;;;;;;;70.00;51.53;;;12.80;99.90;;;;;;5042636;28;20029;-78
2024/03/18 07:17:41;;;;;;;73.18;49.50;;;12.80;99.90;;;;;;5042589;28;20392;-78
2024/03/18 07:20:11;;;;;;;78.65;58.83;;;12.90;99.90;;;;;;5025421;28;20025;-78
2024/03/18 07:22:41;;;;;;;74.97;52.65;;;12.90;99.90;;;;;;5042525;28;20029;-78
2024/03/18 07:25:11;;;;;;;65.93;46.53;;;13.00;99.90;;;;;;5031596;28;20025;-78
2024/03/18 07:27:38;;;;;;;65.82;46.00;;;13.00;99.90;;;;;;5031753;28;20492;-78
2024/03/18 07:30:08;;;;;;;71.03;54.42;;;13.00;99.90;;;;;;5022844;28;20022;-78
2024/03/18 07:32:34;;;;;;;68.05;53.35;;;13.10;99.90;;;;;;5031811;28;20060;-78
2024/03/18 07:35:00;;;;;;;71.78;55.42;;;13.20;99.90;;;;;;5031218;28;20037;-78
2024/03/18 07:37:26;;;;;;;72.13;49.63;;;13.20;99.90;;;;;;5032310;28;20396;-78
2024/03/18 07:39:52;;;;;;;70.35;50.83;;;13.20;99.90;;;;;;5022014;28;20030;-78
2024/03/18 07:42:18;;;;;;;73.57;52.45;;;13.30;99.90;;;;;;5042483;28;20036;-78
2024/03/18 07:44:44;;;;;;;67.80;48.00;;;13.30;99.90;;;;;;5039301;28;20524;-78
2024/03/18 07:47:09;;;;;;;66.88;47.50;;;13.30;99.90;;;;;;5039275;28;20113;-78
2024/03/18 07:49:36;;;;;;;68.57;48.15;;;13.40;99.90;;;;;;5025173;28;20405;-78
2024/03/18 07:52:03;;;;;;;69.65;47.33;;;13.40;99.90;;;;;;5042773;28;20499;-78
2024/03/18 07:54:32;;;;;;;61.60;45.58;;;13.50;99.90;;;;;;5033508;28;20025;-78
2024/03/18 07:56:59;;;;;;;63.92;48.15;;;13.50;99.90;;;;;;5032945;28;20037;-78
2024/03/18 07:59:24;;;;;;;70.25;49.00;;;13.50;99.90;;;;;;5042649;28;20032;-78
2024/03/18 08:01:51;;;;;;;66.93;49.85;;;13.50;99.90;;;;;;5044848;28;20033;-78
2024/03/18 08:04:17;;;;;;;70.68;49.67;;;13.50;99.90;;;;;;5045903;28;20032;-78
2024/03/18 08:06:46;;;;;;;69.38;52.45;;;13.50;99.90;;;;;;5044266;28;20071;-78
2024/03/18 08:09:16;;;;;;;76.10;51.70;;;13.50;99.90;;;;;;5043767;28;20029;-78
2024/03/18 08:11:43;;;;;;;66.43;48.63;;;13.50;99.90;;;;;;5035163;28;20440;-78
2024/03/18 08:14:09;;;;;;;77.13;55.13;;;13.50;99.90;;;;;;5026250;28;20439;-78
2024/03/18 08:16:35;;;;;;;75.03;54.22;;;13.60;99.90;;;;;;5022675;28;20033;-78
2024/03/18 08:19:03;;;;;;;81.93;56.42;;;13.60;99.90;;;;;;5047232;28;20021;-78
2024/03/18 08:21:29;;;;;;;79.25;55.33;;;13.60;99.90;;;;;;5026347;28;20435;-78
2024/03/18 08:23:55;;;;;;;76.15;56.35;;;13.70;99.90;;;;;;5043186;28;20065;-78
2024/03/18 08:26:21;;;;;;;85.50;58.80;;;13.60;99.90;;;;;;5034883;28;20421;-78
2024/03/18 08:28:46;;;;;;;77.50;56.00;;;13.70;99.90;;;;;;5042165;28;20031;-78
2024/03/18 08:31:12;;;;;;;79.18;59.50;;;13.70;99.90;;;;;;5045314;28;20031;-78
2024/03/18 08:33:38;;;;;;;78.22;55.83;;;13.70;99.90;;;;;;5042684;28;20021;-78
2024/03/18 08:36:08;;;;;;;88.32;54.92;;;13.70;99.90;;;;;;5045307;28;20025;-78
2024/03/18 08:38:33;;;;;;;73.90;52.75;;;13.80;99.90;;;;;;5023833;28;20124;-78
2024/03/18 08:40:59;;;;;;;75.97;50.92;;;13.80;99.90;;;;;;5023860;28;20021;-78
2024/03/18 08:43:25;;;;;;;74.70;55.10;;;13.90;99.90;;;;;;5044548;28;20025;-78
2024/03/18 08:45:52;;;;;;;77.63;55.10;;;14.00;99.90;;;;;;5042209;28;20056;-78
2024/03/18 08:48:19;;;;;;;79.00;52.55;;;14.00;99.90;;;;;;5046148;28;20041;-78
2024/03/18 08:50:45;;;;;;;74.65;51.22;;;14.10;99.90;;;;;;5043597;28;20021;-78
2024/03/18 08:53:14;;;;;;;77.10;53.30;;;14.10;99.90;;;;;;5042873;28;20484;-78
2024/03/18 08:55:45;;;;;;;76.13;54.10;;;14.10;99.90;;;;;;5043374;28;20021;-78
2024/03/18 08:58:11;;;;;;;71.27;51.80;;;14.10;99.90;;;;;;5042105;28;20119;-78
2024/03/18 09:00:37;;;;;;;76.47;53.08;;;14.20;99.90;;;;;;5043454;28;20109;-78
2024/03/18 09:03:03;;;;;;;73.13;51.70;;;14.30;99.90;;;;;;5040592;28;20448;-78
2024/03/18 09:05:30;;;;;;;74.88;51.70;;;14.30;99.90;;;;;;5044752;28;20488;-78
2024/03/18 09:07:56;;;;;;;78.40;51.90;;;14.30;99.90;;;;;;5043176;28;20017;-78
2024/03/18 09:10:22;;;;;;;84.07;52.20;;;14.40;99.90;;;;;;5041153;28;20075;-78
2024/03/18 09:12:48;;;;;;;73.80;51.97;;;14.40;99.90;;;;;;5044861;28;20019;-78
2024/03/18 09:15:14;;;;;;;77.30;51.17;;;14.50;99.90;;;;;;5043972;28;20029;-78
2024/03/18 09:17:41;;;;;;;76.72;52.92;;;14.50;99.90;;;;;;5042447;28;20032;-78
2024/03/18 09:20:09;;;;;;;76.20;53.28;;;14.60;99.90;;;;;;5041011;28;20036;-78
2024/03/18 09:22:36;;;;;;;76.75;55.22;;;14.60;99.90;;;;;;5037185;28;20075;-78
2024/03/18 09:25:04;;;;;;;81.82;55.17;;;14.70;99.90;;;;;;5041154;28;20469;-78
2024/03/18 09:27:30;;;;;;;77.60;54.35;;;14.80;99.90;;;;;;5037704;28;20071;-78
2024/03/18 09:29:56;;;;;;;83.38;56.72;;;14.80;99.90;;;;;;5027564;28;20029;-78
2024/03/18 09:32:22;;;;;;;84.45;56.13;;;14.80;99.90;;;;;;5040966;28;20036;-78
2024/03/18 09:34:47;;;;;;;80.47;54.65;;;14.80;99.90;;;;;;5020190;28;20021;-78
2024/03/18 09:37:15;;;;;;;72.28;52.28;;;14.80;99.90;;;;;;5039429;28;20022;-78
2024/03/18 09:39:40;;;;;;;76.43;54.42;;;14.90;99.90;;;;;;5038713;28;20498;-78
2024/03/18 09:42:08;;;;;;;76.15;55.42;;;14.80;99.90;;;;;;5017941;28;20021;-78
2024/03/18 09:44:35;;;;;;;80.82;55.53;;;14.90;99.90;;;;;;5038970;28;20029;-78
2024/03/18 09:47:01;;;;;;;77.55;54.10;;;14.80;99.90;;;;;;5039370;28;20028;-78
2024/03/18 09:49:27;;;;;;;85.07;55.78;;;14.80;99.90;;;;;;5042056;28;20524;-78
2024/03/18 09:51:54;;;;;;;79.00;52.80;;;14.70;99.90;;;;;;5029555;28;20088;-78
2024/03/18 09:54:20;;;;;;;80.82;58.03;;;14.70;99.90;;;;;;5017130;28;20103;-78
2024/03/18 09:57:03;;;;;;;87.30;56.22;;;14.60;99.90;;;;;;5038028;28;20152;-78
2024/03/18 09:59:30;;;;;;;83.18;56.20;;;14.70;99.90;;;;;;5039366;28;20385;-77
2024/03/18 10:01:56;;;;;;;80.57;56.67;;;14.60;99.90;;;;;;5037378;28;20020;-79
2024/03/18 10:04:21;;;;;;;90.20;58.70;;;14.70;99.90;;;;;;5039482;28;20033;-77
2024/03/18 10:06:47;;;;;;;84.28;58.58;;;14.70;99.90;;;;;;5038175;28;20024;-78
2024/03/18 10:09:15;;;;;;;89.78;58.97;;;14.70;99.90;;;;;;5020822;28;20040;-77
2024/03/18 10:11:44;;;;;;;93.38;62.70;;;14.70;99.90;;;;;;5038968;28;20817;-79
2024/03/18 10:14:14;;;;;;;90.65;61.58;;;14.70;99.90;;;;;;5036338;28;20432;-78
2024/03/18 10:16:39;;;;;;;82.55;60.20;;;14.70;99.90;;;;;;5038002;28;20036;-79
2024/03/18 10:19:08;;;;;;;88.72;64.15;;;14.70;99.90;;;;;;5039148;28;20262;-80
2024/03/18 10:21:37;;;;;;;91.95;62.08;;;14.70;99.90;;;;;;5038358;28;20370;-80
2024/03/18 10:24:04;;;;;;;81.70;59.60;;;14.60;99.90;;;;;;5043535;28;20025;-79
2024/03/18 10:26:31;;;;;;;83.85;60.72;;;14.60;99.90;;;;;;5042017;28;20030;-80
2024/03/18 10:28:57;;;;;;;85.20;59.85;;;14.70;99.90;;;;;;5019842;28;20482;-80
2024/03/18 10:31:23;;;;;;;81.43;58.67;;;14.70;99.90;;;;;;5040633;28;20056;-80
2024/03/18 10:33:50;;;;;;;92.32;61.50;;;14.70;99.90;;;;;;5033495;28;20041;-80
2024/03/18 10:36:23;;;;;;;90.72;59.85;;;14.70;99.90;;;;;;5042828;28;20024;-80
2024/03/18 10:39:04;;;;;;;88.50;61.33;;;14.70;99.90;;;;;;5031023;28;20048;-80
2024/03/18 10:41:35;;;;;;;87.22;62.78;;;14.70;99.90;;;;;;5040196;28;20099;-80
2024/03/18 10:44:23;;;;;;;89.38;63.38;;;14.70;99.90;;;;;;5039615;28;20021;-80
2024/03/18 10:46:50;;;;;;;84.30;60.50;;;14.80;99.90;;;;;;5040908;28;20037;-80
2024/03/18 10:49:20;;;;;;;90.35;64.20;;;14.80;99.90;;;;;;5031577;28;20128;-80
2024/03/18 10:51:49;;;;;;;86.68;63.03;;;14.80;99.90;;;;;;5041428;28;20025;-80
2024/03/18 10:54:16;;;;;;;96.57;68.07;;;14.90;99.90;;;;;;5031269;28;20032;-80
2024/03/18 10:56:46;;;;;;;86.97;63.83;;;14.90;99.90;;;;;;5031889;28;20033;-80
2024/03/18 10:59:14;;;;;;;96.07;66.57;;;14.90;99.90;;;;;;5040941;28;20043;-80
2024/03/18 11:01:40;;;;;;;97.35;67.22;;;15.00;99.90;;;;;;5023690;28;20021;-80
2024/03/18 11:04:19;;;;;;;95.07;66.93;;;15.00;99.90;;;;;;5024422;28;20031;-80
2024/03/18 11:06:52;;;;;;;96.10;66.50;;;15.00;99.90;;;;;;5042285;28;20035;-80
2024/03/18 11:09:19;;;;;;;94.18;66.72;;;15.00;99.90;;;;;;5021319;28;20580;-80
2024/03/18 11:11:46;;;;;;;99.32;66.32;;;15.00;99.90;;;;;;5042918;28;20032;-80
2024/03/18 11:14:23;;;;;;;100.28;66.90;;;15.00;99.90;;;;;;5039510;28;20481;-80
2024/03/18 11:16:51;;;;;;;99.28;68.90;;;15.00;99.90;;;;;;5039741;28;20029;-79
2024/03/18 11:19:21;;;;;;;93.45;66.57;;;15.00;99.90;;;;;;5032302;28;20057;-80
2024/03/18 11:22:07;;;;;;;93.63;65.65;;;15.00;99.90;;;;;;5022249;28;20033;-80
2024/03/18 11:24:33;;;;;;;101.40;69.55;;;15.00;99.90;;;;;;5039497;28;20504;-80
2024/03/18 11:27:01;;;;;;;90.70;66.90;;;15.00;99.90;;;;;;5044125;28;20112;-80
2024/03/18 11:29:36;;;;;;;104.85;65.65;;;15.00;99.90;;;;;;5043534;28;20056;-80
2024/03/18 11:32:02;;;;;;;88.15;62.75;;;15.00;99.90;;;;;;5029055;28;20056;-80
2024/03/18 11:34:31;;;;;;;89.70;64.82;;;15.00;99.90;;;;;;5046816;28;20038;-80
2024/03/18 11:36:57;;;;;;;88.95;63.30;;;15.10;99.90;;;;;;5032423;28;20036;-80
2024/03/18 11:39:23;;;;;;;93.22;68.43;;;15.10;99.90;;;;;;5043213;28;20021;-80
2024/03/18 11:41:59;;;;;;;89.22;64.63;;;15.20;99.90;;;;;;5036270;28;20023;-80
2024/03/18 11:44:25;;;;;;;92.53;65.38;;;15.20;99.90;;;;;;5042796;28;20542;-79
2024/03/18 11:47:02;;;;;;;96.20;67.68;;;15.30;99.90;;;;;;5046352;28;20164;-80
2024/03/18 11:49:29;;;;;;;90.95;65.90;;;15.30;99.90;;;;;;5046471;28;20048;-79
2024/03/18 11:51:56;;;;;;;95.07;65.53;;;15.30;99.90;;;;;;5043189;28;20026;-80
2024/03/18 11:54:22;;;;;;;85.15;63.97;;;15.40;99.90;;;;;;5033855;28;20028;-79
2024/03/18 11:56:47;;;;;;;94.50;67.30;;;15.50;99.90;;;;;;5045873;28;20041;-79
2024/03/18 11:59:14;;;;;;;95.40;65.60;;;15.70;99.90;;;;;;5046023;28;20025;-79
2024/03/18 12:01:40;;;;;;;96.75;70.70;;;15.70;99.90;;;;;;5042162;28;20014;-80
2024/03/18 12:04:09;;;;;;;94.40;69.25;;;15.80;99.90;;;;;;5045692;28;20032;-80
2024/03/18 12:06:38;;;;;;;90.95;66.80;;;15.80;99.90;;;;;;5045913;28;20024;-79
2024/03/18 12:09:07;;;;;;;95.38;66.57;;;15.90;99.90;;;;;;5024183;28;20026;-79
2024/03/18 12:11:33;;;;;;;104.00;73.15;;;16.00;99.90;;;;;;5042155;28;20155;-80
2024/03/18 12:14:00;;;;;;;91.70;65.43;;;16.00;99.90;;;;;;5045613;28;20033;-80
2024/03/18 12:16:26;;;;;;;95.95;69.15;;;15.90;99.90;;;;;;5042484;28;20076;-80
2024/03/18 12:18:52;;;;;;;91.82;68.35;;;15.80;99.90;;;;;;5026982;28;20480;-80
2024/03/18 12:21:18;;;;;;;97.10;69.30;;;15.80;99.90;;;;;;5043003;28;20032;-80
2024/03/18 12:29:22;;;;;;;101.82;70.68;;;15.60;99.90;;;;;;5042851;28;20204;-80
2024/03/18 12:31:48;;;;;;;95.80;69.45;;;15.60;99.90;;;;;;5041751;28;20029;-79
2024/03/18 12:34:15;;;;;;;95.30;69.40;;;15.60;99.90;;;;;;5045771;28;20017;-80